sensor_id;sensor_type;location;lat;lon;timestamp;pressure;altitude;pressure_sealevel;temperature;humidity
23589;BME280;11972;48.078;11.876;2023-05-11T00:02:45;95144.13;;;8.52;100.00
23589;BME280;11972;48.078;11.876;2023-05-11T00:06:45;95142.13;;;8.54;100.00
23589;BME280;11972;48.078;11.876;2023-05-11T00:10:46;95139.22;;;8.49;100.00
23589;BME280;11972;48.078;11.876;2023-05-11T00:14:47;95133.16;;;8.48;100.00
23589;BME280;11972;48.078;11.876;2023-05-11T00:18:48;95132.84;;;8.43;100.00
23589;BME280;11972;48.078;11.876;2023-05-11T00:22:48;95142.75;;;8.41;100.00
23589;BME280;11972;48.078;11.876;2023-05-11T00:26:48;95141.31;;;8.30;100.00
23589;BME280;11972;48.078;11.876;2023-05-11T00:30:49;95139.69;;;8.29;100.00
23589;BME280;11972;48.078;11.876;2023-05-11T00:34:49;95132.69;;;8.21;100.00
23589;BME280;11972;48.078;11.876;2023-05-11T00:38:49;95137.84;;;8.15;100.00
23589;BME280;11972;48.078;11.876;2023-05-11T00:42:51;95129.63;;;8.10;100.00
23589;BME280;11972;48.078;11.876;2023-05-11T00:46:52;95134.91;;;8.10;100.00
23589;BME280;11972;48.078;11.876;2023-05-11T00:50:52;95125.38;;;8.09;100.00
23589;BME280;11972;48.078;11.876;2023-05-11T00:54:53;95127.19;;;8.08;100.00
23589;BME280;11972;48.078;11.876;2023-05-11T00:58:53;95130.00;;;8.07;100.00
23589;BME280;11972;48.078;11.876;2023-05-11T01:02:54;95129.34;;;8.05;100.00
23589;BME280;11972;48.078;11.876;2023-05-11T01:11:40;95125.16;;;7.95;100.00
23589;BME280;11972;48.078;11.876;2023-05-11T01:19:46;95125.25;;;8.02;100.00
23589;BME280;11972;48.078;11.876;2023-05-11T01:28:07;95121.88;;;7.93;100.00
23589;BME280;11972;48.078;11.876;2023-05-11T01:32:16;95129.41;;;7.96;100.00
23589;BME280;11972;48.078;11.876;2023-05-11T01:36:18;95123.16;;;7.97;100.00
23589;BME280;11972;48.078;11.876;2023-05-11T01:40:22;95125.78;;;7.97;100.00
23589;BME280;11972;48.078;11.876;2023-05-11T01:44:24;95126.16;;;7.94;100.00
23589;BME280;11972;48.078;11.876;2023-05-11T01:48:27;95129.75;;;7.93;100.00
23589;BME280;11972;48.078;11.876;2023-05-11T01:52:29;95130.13;;;7.90;100.00
23589;BME280;11972;48.078;11.876;2023-05-11T01:56:31;95123.59;;;7.86;100.00
23589;BME280;11972;48.078;11.876;2023-05-11T02:00:33;95122.13;;;7.84;100.00
23589;BME280;11972;48.078;11.876;2023-05-11T02:04:34;95127.38;;;7.84;100.00
23589;BME280;11972;48.078;11.876;2023-05-11T02:08:37;95117.03;;;7.82;100.00
23589;BME280;11972;48.078;11.876;2023-05-11T02:12:39;95114.22;;;7.84;100.00
23589;BME280;11972;48.078;11.876;2023-05-11T02:16:40;95107.50;;;7.81;100.00
23589;BME280;11972;48.078;11.876;2023-05-11T02:20:43;95110.50;;;7.78;100.00
23589;BME280;11972;48.078;11.876;2023-05-11T02:24:44;95112.47;;;7.76;100.00
23589;BME280;11972;48.078;11.876;2023-05-11T02:28:46;95110.84;;;7.75;100.00
23589;BME280;11972;48.078;11.876;2023-05-11T02:32:50;95112.81;;;7.73;100.00
23589;BME280;11972;48.078;11.876;2023-05-11T02:36:53;95116.09;;;7.75;100.00
23589;BME280;11972;48.078;11.876;2023-05-11T02:40:57;95105.56;;;7.75;100.00
23589;BME280;11972;48.078;11.876;2023-05-11T02:45:01;95114.16;;;7.69;100.00
23589;BME280;11972;48.078;11.876;2023-05-11T02:49:04;95112.38;;;7.69;100.00
23589;BME280;11972;48.078;11.876;2023-05-11T02:53:15;95106.25;;;7.69;100.00
23589;BME280;11972;48.078;11.876;2023-05-11T02:57:16;95107.91;;;7.70;100.00
23589;BME280;11972;48.078;11.876;2023-05-11T03:01:17;95104.28;;;7.71;100.00
23589;BME280;11972;48.078;11.876;2023-05-11T03:05:18;95105.44;;;7.68;100.00
23589;BME280;11972;48.078;11.876;2023-05-11T03:09:18;95097.75;;;7.67;100.00
23589;BME280;11972;48.078;11.876;2023-05-11T03:13:19;95100.44;;;7.59;100.00
23589;BME280;11972;48.078;11.876;2023-05-11T03:17:21;95100.75;;;7.56;100.00
23589;BME280;11972;48.078;11.876;2023-05-11T03:21:22;95106.03;;;7.56;100.00
23589;BME280;11972;48.078;11.876;2023-05-11T03:25:23;95106.50;;;7.59;100.00
23589;BME280;11972;48.078;11.876;2023-05-11T03:29:24;95092.00;;;7.63;100.00
23589;BME280;11972;48.078;11.876;2023-05-11T03:33:26;95093.66;;;7.64;100.00
23589;BME280;11972;48.078;11.876;2023-05-11T03:37:28;95090.88;;;7.66;100.00
23589;BME280;11972;48.078;11.876;2023-05-11T03:41:30;95084.59;;;7.67;100.00
23589;BME280;11972;48.078;11.876;2023-05-11T03:45:31;95084.06;;;7.71;100.00
23589;BME280;11972;48.078;11.876;2023-05-11T03:49:33;95090.16;;;7.72;100.00
23589;BME280;11972;48.078;11.876;2023-05-11T03:53:35;95081.97;;;7.67;100.00
23589;BME280;11972;48.078;11.876;2023-05-11T03:57:37;95081.97;;;7.67;100.00
23589;BME280;11972;48.078;11.876;2023-05-11T04:01:38;95084.56;;;7.75;100.00
23589;BME280;11972;48.078;11.876;2023-05-11T04:05:39;95077.66;;;7.74;100.00
23589;BME280;11972;48.078;11.876;2023-05-11T04:09:40;95079.53;;;7.65;100.00
23589;BME280;11972;48.078;11.876;2023-05-11T04:13:40;95081.03;;;7.60;100.00
23589;BME280;11972;48.078;11.876;2023-05-11T04:17:41;95075.78;;;7.60;100.00
23589;BME280;11972;48.078;11.876;2023-05-11T04:21:41;95071.47;;;7.67;100.00
23589;BME280;11972;48.078;11.876;2023-05-11T04:25:41;95074.72;;;7.69;100.00
23589;BME280;11972;48.078;11.876;2023-05-11T04:29:42;95078.00;;;7.71;100.00
23589;BME280;11972;48.078;11.876;2023-05-11T04:33:42;95077.34;;;7.69;100.00
23589;BME280;11972;48.078;11.876;2023-05-11T04:37:42;95078.06;;;7.63;100.00
23589;BME280;11972;48.078;11.876;2023-05-11T04:41:43;95089.19;;;7.65;100.00
23589;BME280;11972;48.078;11.876;2023-05-11T04:45:47;95096.59;;;7.69;100.00
23589;BME280;11972;48.078;11.876;2023-05-11T04:49:48;95092.97;;;7.70;100.00
23589;BME280;11972;48.078;11.876;2023-05-11T04:53:49;95087.56;;;7.64;100.00
23589;BME280;11972;48.078;11.876;2023-05-11T04:57:50;95091.88;;;7.57;100.00
23589;BME280;11972;48.078;11.876;2023-05-11T05:01:50;95090.38;;;7.62;100.00
23589;BME280;11972;48.078;11.876;2023-05-11T05:05:50;95095.94;;;7.67;100.00
23589;BME280;11972;48.078;11.876;2023-05-11T05:09:51;95094.00;;;7.84;100.00
23589;BME280;11972;48.078;11.876;2023-05-11T05:13:51;95095.22;;;7.96;100.00
23589;BME280;11972;48.078;11.876;2023-05-11T05:17:53;95102.06;;;8.06;100.00
23589;BME280;11972;48.078;11.876;2023-05-11T05:21:53;95095.69;;;8.23;100.00
23589;BME280;11972;48.078;11.876;2023-05-11T05:25:54;95102.50;;;8.32;100.00
23589;BME280;11972;48.078;11.876;2023-05-11T05:29:54;95097.88;;;8.34;100.00
23589;BME280;11972;48.078;11.876;2023-05-11T05:33:54;95106.75;;;8.33;100.00
23589;BME280;11972;48.078;11.876;2023-05-11T05:37:55;95106.75;;;8.33;100.00
23589;BME280;11972;48.078;11.876;2023-05-11T05:41:55;95099.69;;;8.34;100.00
23589;BME280;11972;48.078;11.876;2023-05-11T05:45:55;95109.88;;;8.37;100.00
23589;BME280;11972;48.078;11.876;2023-05-11T05:49:56;95118.97;;;8.26;100.00
23589;BME280;11972;48.078;11.876;2023-05-11T05:53:56;95113.84;;;8.10;100.00
23589;BME280;11972;48.078;11.876;2023-05-11T05:57:56;95111.66;;;7.99;100.00
23589;BME280;11972;48.078;11.876;2023-05-11T06:01:57;95116.22;;;8.05;100.00
23589;BME280;11972;48.078;11.876;2023-05-11T06:05:57;95117.03;;;8.05;100.00
23589;BME280;11972;48.078;11.876;2023-05-11T06:09:58;95115.22;;;8.06;100.00
23589;BME280;11972;48.078;11.876;2023-05-11T06:13:58;95121.41;;;8.13;100.00
23589;BME280;11972;48.078;11.876;2023-05-11T06:17:58;95118.66;;;8.06;100.00
23589;BME280;11972;48.078;11.876;2023-05-11T06:21:59;95121.69;;;8.18;100.00
23589;BME280;11972;48.078;11.876;2023-05-11T06:25:59;95129.88;;;8.23;100.00
23589;BME280;11972;48.078;11.876;2023-05-11T06:29:59;95134.50;;;8.21;100.00
23589;BME280;11972;48.078;11.876;2023-05-11T06:34:00;95124.25;;;8.26;100.00
23589;BME280;11972;48.078;11.876;2023-05-11T06:38:00;95122.50;;;8.41;100.00
23589;BME280;11972;48.078;11.876;2023-05-11T06:42:00;95116.16;;;8.51;100.00
23589;BME280;11972;48.078;11.876;2023-05-11T06:46:01;95110.91;;;8.51;100.00
23589;BME280;11972;48.078;11.876;2023-05-11T06:50:02;95119.44;;;8.53;100.00
23589;BME280;11972;48.078;11.876;2023-05-11T06:54:03;95123.59;;;8.47;100.00
23589;BME280;11972;48.078;11.876;2023-05-11T06:58:03;95120.88;;;8.40;100.00
23589;BME280;11972;48.078;11.876;2023-05-11T07:02:03;95119.56;;;8.36;100.00
23589;BME280;11972;48.078;11.876;2023-05-11T07:06:04;95122.44;;;8.50;100.00
23589;BME280;11972;48.078;11.876;2023-05-11T07:10:05;95114.03;;;8.69;100.00
23589;BME280;11972;48.078;11.876;2023-05-11T07:14:05;95116.94;;;8.74;100.00
23589;BME280;11972;48.078;11.876;2023-05-11T07:18:07;95119.84;;;8.79;100.00
23589;BME280;11972;48.078;11.876;2023-05-11T07:22:07;95119.59;;;8.89;100.00
23589;BME280;11972;48.078;11.876;2023-05-11T07:26:08;95118.84;;;8.95;100.00
23589;BME280;11972;48.078;11.876;2023-05-11T07:30:08;95121.66;;;8.93;100.00
23589;BME280;11972;48.078;11.876;2023-05-11T07:34:09;95120.75;;;8.86;100.00
23589;BME280;11972;48.078;11.876;2023-05-11T07:38:09;95116.19;;;8.80;100.00
23589;BME280;11972;48.078;11.876;2023-05-11T07:42:10;95120.41;;;8.89;100.00
23589;BME280;11972;48.078;11.876;2023-05-11T07:46:11;95114.47;;;9.17;100.00
23589;BME280;11972;48.078;11.876;2023-05-11T07:50:12;95128.34;;;9.40;100.00
23589;BME280;11972;48.078;11.876;2023-05-11T07:54:12;95116.97;;;9.55;100.00
23589;BME280;11972;48.078;11.876;2023-05-11T07:58:12;95120.59;;;9.54;100.00
23589;BME280;11972;48.078;11.876;2023-05-11T08:02:12;95114.47;;;9.68;100.00
23589;BME280;11972;48.078;11.876;2023-05-11T08:06:13;95113.59;;;9.82;100.00
23589;BME280;11972;48.078;11.876;2023-05-11T08:10:13;95111.78;;;9.83;100.00
23589;BME280;11972;48.078;11.876;2023-05-11T08:14:14;95110.72;;;9.99;100.00
23589;BME280;11972;48.078;11.876;2023-05-11T08:18:14;95101.59;;;10.23;100.00
23589;BME280;11972;48.078;11.876;2023-05-11T08:22:15;95105.31;;;10.28;100.00
23589;BME280;11972;48.078;11.876;2023-05-11T08:26:15;95112.63;;;10.26;100.00
23589;BME280;11972;48.078;11.876;2023-05-11T08:30:15;95114.38;;;9.98;100.00
23589;BME280;11972;48.078;11.876;2023-05-11T08:34:16;95110.09;;;9.97;100.00
23589;BME280;11972;48.078;11.876;2023-05-11T08:38:17;95104.28;;;9.65;100.00
23589;BME280;11972;48.078;11.876;2023-05-11T08:42:23;95106.25;;;9.78;100.00
23589;BME280;11972;48.078;11.876;2023-05-11T08:46:26;95110.16;;;9.82;100.00
23589;BME280;11972;48.078;11.876;2023-05-11T08:50:27;95110.59;;;10.07;100.00
23589;BME280;11972;48.078;11.876;2023-05-11T08:54:28;95104.69;;;10.48;100.00
23589;BME280;11972;48.078;11.876;2023-05-11T08:58:28;95112.38;;;10.49;100.00
23589;BME280;11972;48.078;11.876;2023-05-11T09:02:30;95102.25;;;10.46;100.00
23589;BME280;11972;48.078;11.876;2023-05-11T09:06:31;95108.81;;;10.57;100.00
23589;BME280;11972;48.078;11.876;2023-05-11T09:10:35;95114.56;;;10.67;100.00
23589;BME280;11972;48.078;11.876;2023-05-11T09:14:36;95107.75;;;10.51;100.00
23589;BME280;11972;48.078;11.876;2023-05-11T09:18:45;95101.91;;;10.56;100.00
23589;BME280;11972;48.078;11.876;2023-05-11T09:22:46;95113.34;;;10.69;100.00
23589;BME280;11972;48.078;11.876;2023-05-11T09:26:47;95119.94;;;10.80;100.00
23589;BME280;11972;48.078;11.876;2023-05-11T09:30:47;95110.91;;;10.96;100.00
23589;BME280;11972;48.078;11.876;2023-05-11T09:34:48;95107.13;;;11.12;100.00
23589;BME280;11972;48.078;11.876;2023-05-11T09:38:48;95110.00;;;11.17;100.00
23589;BME280;11972;48.078;11.876;2023-05-11T09:42:49;95111.63;;;11.18;100.00
23589;BME280;11972;48.078;11.876;2023-05-11T09:46:49;95114.34;;;10.97;100.00
23589;BME280;11972;48.078;11.876;2023-05-11T09:50:59;95115.16;;;10.90;100.00
23589;BME280;11972;48.078;11.876;2023-05-11T09:55:09;95106.81;;;10.65;100.00
23589;BME280;11972;48.078;11.876;2023-05-11T09:59:09;95110.09;;;10.39;100.00
23589;BME280;11972;48.078;11.876;2023-05-11T10:03:12;95114.34;;;10.40;100.00
23589;BME280;11972;48.078;11.876;2023-05-11T10:07:42;95109.91;;;10.41;100.00
23589;BME280;11972;48.078;11.876;2023-05-11T10:11:45;95114.31;;;10.34;100.00
23589;BME280;11972;48.078;11.876;2023-05-11T10:15:51;95114.91;;;10.29;100.00
23589;BME280;11972;48.078;11.876;2023-05-11T10:19:53;95108.38;;;10.25;100.00
23589;BME280;11972;48.078;11.876;2023-05-11T10:23:56;95101.81;;;10.49;100.00
23589;BME280;11972;48.078;11.876;2023-05-11T10:27:56;95106.78;;;10.59;100.00
23589;BME280;11972;48.078;11.876;2023-05-11T10:31:57;95110.16;;;10.74;100.00
23589;BME280;11972;48.078;11.876;2023-05-11T10:35:59;95109.38;;;10.80;100.00
23589;BME280;11972;48.078;11.876;2023-05-11T10:40:00;95103.34;;;10.86;100.00
23589;BME280;11972;48.078;11.876;2023-05-11T10:44:24;95096.56;;;11.12;100.00
23589;BME280;11972;48.078;11.876;2023-05-11T10:57:11;95099.31;;;11.38;100.00
23589;BME280;11972;48.078;11.876;2023-05-11T11:05:34;95100.44;;;11.16;100.00
23589;BME280;11972;48.078;11.876;2023-05-11T11:13:55;95101.22;;;11.10;100.00
23589;BME280;11972;48.078;11.876;2023-05-11T11:18:17;95097.75;;;11.03;100.00
23589;BME280;11972;48.078;11.876;2023-05-11T11:26:49;95102.63;;;11.06;100.00
23589;BME280;11972;48.078;11.876;2023-05-11T11:43:43;95095.84;;;10.97;100.00
23589;BME280;11972;48.078;11.876;2023-05-11T11:48:04;95097.63;;;10.89;100.00
23589;BME280;11972;48.078;11.876;2023-05-11T11:52:10;95099.66;;;10.87;100.00
23589;BME280;11972;48.078;11.876;2023-05-11T12:00:19;95091.97;;;10.92;100.00
23589;BME280;11972;48.078;11.876;2023-05-11T12:04:46;95087.94;;;10.97;100.00
23589;BME280;11972;48.078;11.876;2023-05-11T12:08:45;95086.53;;;11.01;100.00
23589;BME280;11972;48.078;11.876;2023-05-11T12:12:46;95089.63;;;10.76;100.00
23589;BME280;11972;48.078;11.876;2023-05-11T12:17:04;95083.19;;;10.51;100.00
23589;BME280;11972;48.078;11.876;2023-05-11T12:21:26;95084.34;;;10.41;100.00
23589;BME280;11972;48.078;11.876;2023-05-11T12:25:28;95088.31;;;10.31;100.00
23589;BME280;11972;48.078;11.876;2023-05-11T12:29:29;95083.09;;;10.37;100.00
23589;BME280;11972;48.078;11.876;2023-05-11T12:33:29;95085.47;;;10.32;100.00
23589;BME280;11972;48.078;11.876;2023-05-11T12:37:30;95083.56;;;10.48;100.00
23589;BME280;11972;48.078;11.876;2023-05-11T12:41:30;95083.75;;;10.74;100.00
23589;BME280;11972;48.078;11.876;2023-05-11T12:45:31;95079.41;;;10.95;100.00
23589;BME280;11972;48.078;11.876;2023-05-11T12:49:31;95078.16;;;10.90;100.00
23589;BME280;11972;48.078;11.876;2023-05-11T12:53:35;95074.06;;;10.88;100.00
23589;BME280;11972;48.078;11.876;2023-05-11T12:57:37;95079.00;;;10.98;100.00
23589;BME280;11972;48.078;11.876;2023-05-11T13:01:37;95077.31;;;10.90;100.00
23589;BME280;11972;48.078;11.876;2023-05-11T13:05:38;95075.84;;;10.81;100.00
23589;BME280;11972;48.078;11.876;2023-05-11T13:09:39;95072.47;;;10.59;100.00
23589;BME280;11972;48.078;11.876;2023-05-11T13:13:40;95082.50;;;10.70;100.00
23589;BME280;11972;48.078;11.876;2023-05-11T13:17:41;95066.88;;;10.75;100.00
23589;BME280;11972;48.078;11.876;2023-05-11T13:21:45;95062.22;;;10.77;100.00
23589;BME280;11972;48.078;11.876;2023-05-11T13:29:47;95061.91;;;10.59;100.00
23589;BME280;11972;48.078;11.876;2023-05-11T13:33:50;95065.16;;;10.61;100.00
23589;BME280;11972;48.078;11.876;2023-05-11T13:37:51;95063.53;;;10.60;100.00
23589;BME280;11972;48.078;11.876;2023-05-11T13:41:51;95055.22;;;10.63;100.00
23589;BME280;11972;48.078;11.876;2023-05-11T13:45:52;95063.53;;;10.60;100.00
23589;BME280;11972;48.078;11.876;2023-05-11T13:49:52;95054.44;;;10.69;100.00
23589;BME280;11972;48.078;11.876;2023-05-11T13:53:55;95060.84;;;10.53;100.00
23589;BME280;11972;48.078;11.876;2023-05-11T13:57:58;95055.47;;;10.40;100.00
23589;BME280;11972;48.078;11.876;2023-05-11T14:01:58;95052.38;;;10.36;100.00
23589;BME280;11972;48.078;11.876;2023-05-11T14:05:59;95051.00;;;10.40;100.00
23589;BME280;11972;48.078;11.876;2023-05-11T14:09:59;95053.31;;;10.50;100.00
23589;BME280;11972;48.078;11.876;2023-05-11T14:13:59;95051.50;;;10.57;100.00
23589;BME280;11972;48.078;11.876;2023-05-11T14:18:00;95051.13;;;10.60;100.00
23589;BME280;11972;48.078;11.876;2023-05-11T14:22:04;95045.91;;;10.67;100.00
23589;BME280;11972;48.078;11.876;2023-05-11T14:26:04;95049.16;;;10.69;100.00
23589;BME280;11972;48.078;11.876;2023-05-11T14:30:06;95051.25;;;10.80;100.00
23589;BME280;11972;48.078;11.876;2023-05-11T14:34:06;95041.16;;;10.90;100.00
23589;BME280;11972;48.078;11.876;2023-05-11T14:38:06;95044.03;;;10.96;100.00
23589;BME280;11972;48.078;11.876;2023-05-11T14:42:07;95050.91;;;10.90;100.00
23589;BME280;11972;48.078;11.876;2023-05-11T14:46:07;95052.13;;;10.87;100.00
23589;BME280;11972;48.078;11.876;2023-05-11T14:50:08;95044.97;;;10.81;100.00
23589;BME280;11972;48.078;11.876;2023-05-11T14:54:09;95047.38;;;10.76;100.00
23589;BME280;11972;48.078;11.876;2023-05-11T14:58:09;95041.88;;;10.71;100.00
23589;BME280;11972;48.078;11.876;2023-05-11T15:02:10;95050.31;;;10.60;100.00
23589;BME280;11972;48.078;11.876;2023-05-11T15:06:10;95046.63;;;10.54;100.00
23589;BME280;11972;48.078;11.876;2023-05-11T15:10:11;95051.06;;;10.47;100.00
23589;BME280;11972;48.078;11.876;2023-05-11T15:14:11;95044.38;;;10.51;100.00
23589;BME280;11972;48.078;11.876;2023-05-11T15:18:11;95055.59;;;10.60;100.00
23589;BME280;11972;48.078;11.876;2023-05-11T15:22:13;95051.13;;;10.60;100.00
23589;BME280;11972;48.078;11.876;2023-05-11T15:26:14;95068.59;;;10.55;100.00
23589;BME280;11972;48.078;11.876;2023-05-11T15:30:14;95062.66;;;10.53;100.00
23589;BME280;11972;48.078;11.876;2023-05-11T15:34:15;95060.81;;;10.47;100.00
23589;BME280;11972;48.078;11.876;2023-05-11T15:38:15;95063.25;;;10.48;100.00
23589;BME280;11972;48.078;11.876;2023-05-11T15:42:16;95063.22;;;10.41;100.00
23589;BME280;11972;48.078;11.876;2023-05-11T15:46:16;95062.34;;;10.34;100.00
23589;BME280;11972;48.078;11.876;2023-05-11T15:50:17;95066.75;;;10.27;100.00
23589;BME280;11972;48.078;11.876;2023-05-11T15:54:17;95066.94;;;10.26;100.00
23589;BME280;11972;48.078;11.876;2023-05-11T15:58:18;95060.03;;;10.25;100.00
23589;BME280;11972;48.078;11.876;2023-05-11T16:02:18;95057.91;;;10.20;100.00
23589;BME280;11972;48.078;11.876;2023-05-11T16:06:18;95061.34;;;10.14;100.00
23589;BME280;11972;48.078;11.876;2023-05-11T16:10:19;95059.31;;;10.16;100.00
23589;BME280;11972;48.078;11.876;2023-05-11T16:14:20;95059.19;;;10.03;100.00
23589;BME280;11972;48.078;11.876;2023-05-11T16:18:20;95065.09;;;9.83;100.00
23589;BME280;11972;48.078;11.876;2023-05-11T16:22:21;95066.69;;;9.78;100.00
23589;BME280;11972;48.078;11.876;2023-05-11T16:26:21;95061.72;;;9.68;100.00
23589;BME280;11972;48.078;11.876;2023-05-11T16:30:22;95054.38;;;9.63;100.00
23589;BME280;11972;48.078;11.876;2023-05-11T16:34:22;95054.84;;;9.67;100.00
23589;BME280;11972;48.078;11.876;2023-05-11T16:38:23;95050.50;;;9.59;100.00
23589;BME280;11972;48.078;11.876;2023-05-11T16:42:23;95049.56;;;9.67;100.00
23589;BME280;11972;48.078;11.876;2023-05-11T16:46:24;95043.53;;;9.73;100.00
23589;BME280;11972;48.078;11.876;2023-05-11T16:50:24;95043.44;;;9.66;100.00
23589;BME280;11972;48.078;11.876;2023-05-11T16:54:25;95038.50;;;9.78;100.00
23589;BME280;11972;48.078;11.876;2023-05-11T16:58:25;95034.59;;;9.74;100.00
23589;BME280;11972;48.078;11.876;2023-05-11T17:02:25;95043.19;;;9.83;100.00
23589;BME280;11972;48.078;11.876;2023-05-11T17:06:26;95043.88;;;9.91;100.00
23589;BME280;11972;48.078;11.876;2023-05-11T17:10:26;95043.19;;;9.83;100.00
23589;BME280;11972;48.078;11.876;2023-05-11T17:14:27;95040.75;;;9.81;100.00
23589;BME280;11972;48.078;11.876;2023-05-11T17:18:27;95037.19;;;9.67;100.00
23589;BME280;11972;48.078;11.876;2023-05-11T17:22:27;95035.00;;;9.71;100.00
23589;BME280;11972;48.078;11.876;2023-05-11T17:26:28;95037.44;;;9.73;100.00
23589;BME280;11972;48.078;11.876;2023-05-11T17:30:29;95043.88;;;9.70;100.00
23589;BME280;11972;48.078;11.876;2023-05-11T17:34:29;95041.13;;;9.78;100.00
23589;BME280;11972;48.078;11.876;2023-05-11T17:38:30;95043.25;;;9.89;100.00
23589;BME280;11972;48.078;11.876;2023-05-11T17:42:30;95052.06;;;9.97;100.00
23589;BME280;11972;48.078;11.876;2023-05-11T17:46:31;95043.38;;;10.03;100.00
23589;BME280;11972;48.078;11.876;2023-05-11T17:50:31;95051.19;;;9.89;100.00
23589;BME280;11972;48.078;11.876;2023-05-11T17:54:32;95041.19;;;9.85;100.00
23589;BME280;11972;48.078;11.876;2023-05-11T17:58:32;95045.66;;;9.84;100.00
23589;BME280;11972;48.078;11.876;2023-05-11T18:02:33;95044.00;;;9.83;100.00
23589;BME280;11972;48.078;11.876;2023-05-11T18:06:33;95042.78;;;9.79;100.00
23589;BME280;11972;48.078;11.876;2023-05-11T18:10:34;95045.78;;;9.76;100.00
23589;BME280;11972;48.078;11.876;2023-05-11T18:14:34;95049.44;;;9.75;100.00
23589;BME280;11972;48.078;11.876;2023-05-11T18:18:35;95043.72;;;9.72;100.00
23589;BME280;11972;48.078;11.876;2023-05-11T18:22:35;95051.19;;;9.68;100.00
23589;BME280;11972;48.078;11.876;2023-05-11T18:26:36;95053.00;;;9.67;100.00
23589;BME280;11972;48.078;11.876;2023-05-11T18:30:37;95046.28;;;9.65;100.00
23589;BME280;11972;48.078;11.876;2023-05-11T18:34:37;95052.72;;;9.62;100.00
23589;BME280;11972;48.078;11.876;2023-05-11T18:38:40;95043.41;;;9.60;100.00
23589;BME280;11972;48.078;11.876;2023-05-11T18:42:43;95063.69;;;9.59;100.00
23589;BME280;11972;48.078;11.876;2023-05-11T18:46:43;95056.94;;;9.57;100.00
23589;BME280;11972;48.078;11.876;2023-05-11T18:50:44;95061.59;;;9.55;100.00
23589;BME280;11972;48.078;11.876;2023-05-11T18:54:44;95057.88;;;9.49;100.00
23589;BME280;11972;48.078;11.876;2023-05-11T18:58:44;95061.72;;;9.47;100.00
23589;BME280;11972;48.078;11.876;2023-05-11T19:02:45;95059.81;;;9.40;100.00
23589;BME280;11972;48.078;11.876;2023-05-11T19:06:47;95063.81;;;9.36;100.00
23589;BME280;11972;48.078;11.876;2023-05-11T19:10:47;95059.66;;;9.27;100.00
23589;BME280;11972;48.078;11.876;2023-05-11T19:14:48;95064.28;;;9.25;100.00
23589;BME280;11972;48.078;11.876;2023-05-11T19:18:48;95067.31;;;9.22;100.00
23589;BME280;11972;48.078;11.876;2023-05-11T19:22:49;95063.22;;;9.19;100.00
23589;BME280;11972;48.078;11.876;2023-05-11T19:26:50;95068.69;;;9.18;100.00
23589;BME280;11972;48.078;11.876;2023-05-11T19:31:04;95064.78;;;9.14;100.00
23589;BME280;11972;48.078;11.876;2023-05-11T19:35:05;95061.88;;;9.09;100.00
23589;BME280;11972;48.078;11.876;2023-05-11T19:39:06;95067.88;;;9.03;100.00
23589;BME280;11972;48.078;11.876;2023-05-11T19:43:07;95065.44;;;9.01;100.00
23589;BME280;11972;48.078;11.876;2023-05-11T19:47:08;95061.34;;;8.99;100.00
23589;BME280;11972;48.078;11.876;2023-05-11T19:51:08;95071.44;;;8.95;100.00
23589;BME280;11972;48.078;11.876;2023-05-11T19:55:09;95066.72;;;8.90;100.00
23589;BME280;11972;48.078;11.876;2023-05-11T19:59:09;95070.34;;;8.89;100.00
23589;BME280;11972;48.078;11.876;2023-05-11T20:03:09;95065.72;;;8.91;100.00
23589;BME280;11972;48.078;11.876;2023-05-11T20:07:10;95070.97;;;8.91;100.00
23589;BME280;11972;48.078;11.876;2023-05-11T20:11:10;95074.63;;;8.90;100.00
23589;BME280;11972;48.078;11.876;2023-05-11T20:15:10;95072.34;;;8.87;100.00
23589;BME280;11972;48.078;11.876;2023-05-11T20:19:11;95074.97;;;8.87;100.00
23589;BME280;11972;48.078;11.876;2023-05-11T20:23:11;95067.72;;;8.89;100.00
23589;BME280;11972;48.078;11.876;2023-05-11T20:27:11;95069.34;;;8.90;100.00
23589;BME280;11972;48.078;11.876;2023-05-11T20:31:12;95064.91;;;8.91;100.00
23589;BME280;11972;48.078;11.876;2023-05-11T20:35:12;95065.72;;;8.91;100.00
23589;BME280;11972;48.078;11.876;2023-05-11T20:39:12;95068.69;;;8.88;100.00
23589;BME280;11972;48.078;11.876;2023-05-11T20:43:14;95059.97;;;8.88;100.00
23589;BME280;11972;48.078;11.876;2023-05-11T20:47:15;95062.81;;;8.86;100.00
23589;BME280;11972;48.078;11.876;2023-05-11T20:51:16;95057.91;;;8.83;100.00
23589;BME280;11972;48.078;11.876;2023-05-11T20:55:18;95053.91;;;8.87;100.00
23589;BME280;11972;48.078;11.876;2023-05-11T20:59:18;95058.81;;;8.90;100.00
23589;BME280;11972;48.078;11.876;2023-05-11T21:03:19;95058.81;;;8.90;100.00
23589;BME280;11972;48.078;11.876;2023-05-11T21:07:19;95060.63;;;8.90;100.00
23589;BME280;11972;48.078;11.876;2023-05-11T21:11:22;95054.16;;;8.92;100.00
23589;BME280;11972;48.078;11.876;2023-05-11T21:15:22;95056.44;;;8.95;100.00
23589;BME280;11972;48.078;11.876;2023-05-11T21:19:22;95050.56;;;8.93;100.00
23589;BME280;11972;48.078;11.876;2023-05-11T21:23:23;95045.91;;;8.95;100.00
23589;BME280;11972;48.078;11.876;2023-05-11T21:32:39;95047.63;;;9.03;100.00
23589;BME280;11972;48.078;11.876;2023-05-11T21:36:40;95046.44;;;9.06;100.00
23589;BME280;11972;48.078;11.876;2023-05-11T21:40:40;95049.34;;;9.11;100.00
23589;BME280;11972;48.078;11.876;2023-05-11T21:49:47;95059.63;;;9.06;100.00
23589;BME280;11972;48.078;11.876;2023-05-11T21:53:47;95064.25;;;9.04;100.00
23589;BME280;11972;48.078;11.876;2023-05-11T21:57:47;95059.16;;;9.02;100.00
23589;BME280;11972;48.078;11.876;2023-05-11T22:01:48;95063.63;;;9.02;100.00
23589;BME280;11972;48.078;11.876;2023-05-11T22:05:48;95062.41;;;9.04;100.00